Date,TemperatureHighF,TemperatureAvgF,TemperatureLowF,DewpointHighF,DewpointAvgF,DewpointLowF,HumidityHigh,HumidityAvg,HumidityLow,PressureMaxIn,PressureMinIn,WindSpeedMaxMPH,WindSpeedAvgMPH,GustSpeedMaxMPH,PrecipitationSumIn
2013-2-1,21.0,18.5,10.0,6.2,3.6,-6.5,55,51,46,29.92,29.92,9,2,14,0.01
2013-2-2,23.9,17.4,12.4,13.7,6.5,-1.0,70,62,54,29.92,29.92,7,2,11,0.00
2013-2-3,24.4,15.9,11.5,13.1,3.0,-1.1,71,56,47,29.92,29.92,11,2,14,0.00
2013-2-4,25.3,19.7,16.9,14.2,8.2,2.0,70,61,51,29.92,29.92,3,1,7,0.00
2013-2-5,29.5,23.0,18.3,19.0,12.4,8.9,73,64,46,29.92,29.92,8,1,11,0.00
2013-2-6,26.4,26.0,21.9,19.0,18.4,10.9,73,72,62,29.92,29.92,1,0,5,0.04
2013-2-7,42.4,30.5,21.9,26.5,18.4,10.9,65,61,51,29.92,29.92,7,2,13,0.02
2013-2-8,31.1,27.6,23.9,24.4,18.5,11.7,81,68,58,29.92,29.92,17,5,27,0.00
2013-2-9,36.3,27.0,9.3,16.8,10.2,-0.3,69,50,34,29.92,29.92,4,1,7,0.06
2013-2-10,38.7,36.4,36.0,29.9,15.4,12.9,71,43,38,29.92,29.92,4,2,7,0.12
2013-2-11,46.0,37.8,35.1,40.4,26.1,20.7,82,63,53,29.92,29.92,13,5,26,0.11
2013-2-12,35.1,34.0,29.8,22.6,21.4,16.8,62,60,57,29.92,29.92,5,5,15,0.11
2013-2-13,29.8,27.8,27.1,17.7,16.1,15.5,61,61,60,29.92,29.92,4,1,7,0.00
2013-2-14,40.5,34.5,25.0,33.0,25.8,15.5,82,70,61,29.92,29.92,11,2,21,0.02
2013-2-15,35.4,34.2,34.2,24.5,23.0,22.9,66,63,63,29.92,29.92,8,5,14,0.00
2013-2-16,34.2,34.2,34.2,22.9,22.9,22.9,63,63,63,29.92,29.92,5,5,14,0.00
2013-2-17,34.2,31.2,14.2,22.9,19.3,-1.0,63,61,44,29.92,29.92,5,4,14,0.00
2013-2-18,45.0,14.9,14.2,30.9,1.8,1.1,59,55,55,29.92,29.92,6,0,10,0.00
2013-2-19,45.3,30.7,19.2,31.1,18.7,3.3,77,61,45,29.92,29.92,8,1,16,0.13
2013-2-20,19.2,19.2,19.2,4.1,4.1,4.1,51,51,51,29.92,29.92,0,0,0,0.13
2013-2-21,19.2,19.2,19.2,4.1,4.1,4.1,51,51,51,29.92,29.92,0,0,0,0.13
2013-2-22,34.3,24.5,19.2,29.6,13.2,4.1,84,62,51,29.92,29.92,6,0,10,0.13
2013-2-23,38.1,32.0,27.0,27.4,18.9,13.2,76,59,46,29.92,29.92,8,2,17,0.09
2013-2-24,39.6,29.3,22.6,24.2,17.6,13.7,71,61,50,29.92,29.92,11,2,15,0.01
2013-2-25,44.8,30.2,16.5,25.4,17.4,8.8,77,60,38,29.92,29.92,4,0,7,0.00
2013-2-26,36.5,32.0,27.9,28.7,22.8,15.2,83,69,53,29.92,29.92,9,3,18,0.39
2013-2-27,33.4,33.2,32.9,28.8,28.6,28.3,83,83,83,29.92,29.92,8,1,12,0.00
2013-2-28,40.3,34.2,30.4,31.4,26.5,20.4,83,73,62,29.92,29.92,10,3,16,0.19